sensor_id;sensor_type;location;lat;lon;timestamp;pressure;altitude;pressure_sealevel;temperature;humidity
66430;BME280;53242;51.694;10.006;2023-12-20T00:00:05;99159.38;;;5.37;100.00
66430;BME280;53242;51.694;10.006;2023-12-20T00:02:29;99174.75;;;5.32;100.00
66430;BME280;53242;51.694;10.006;2023-12-20T00:04:51;99171.16;;;5.33;100.00
66430;BME280;53242;51.694;10.006;2023-12-20T00:07:13;99175.38;;;5.34;100.00
66430;BME280;53242;51.694;10.006;2023-12-20T00:09:36;99172.63;;;5.36;100.00
66430;BME280;53242;51.694;10.006;2023-12-20T00:11:58;99169.47;;;5.49;100.00
66430;BME280;53242;51.694;10.006;2023-12-20T00:14:21;99169.97;;;5.44;100.00
66430;BME280;53242;51.694;10.006;2023-12-20T00:16:43;99169.97;;;5.44;100.00
66430;BME280;53242;51.694;10.006;2023-12-20T00:19:05;99165.41;;;5.46;100.00
66430;BME280;53242;51.694;10.006;2023-12-20T00:21:28;99160.47;;;5.43;100.00
66430;BME280;53242;51.694;10.006;2023-12-20T00:23:50;99172.53;;;5.52;100.00
66430;BME280;53242;51.694;10.006;2023-12-20T00:26:13;99164.25;;;5.40;100.00
66430;BME280;53242;51.694;10.006;2023-12-20T00:28:35;99159.81;;;5.49;100.00
66430;BME280;53242;51.694;10.006;2023-12-20T00:30:57;99157.25;;;5.41;100.00
66430;BME280;53242;51.694;10.006;2023-12-20T00:33:20;99168.31;;;5.51;100.00
66430;BME280;53242;51.694;10.006;2023-12-20T00:35:42;99169.63;;;5.47;100.00
66430;BME280;53242;51.694;10.006;2023-12-20T00:38:05;99163.44;;;5.40;100.00
66430;BME280;53242;51.694;10.006;2023-12-20T00:40:29;99161.94;;;5.46;100.00
66430;BME280;53242;51.694;10.006;2023-12-20T00:42:51;99160.84;;;5.40;100.00
66430;BME280;53242;51.694;10.006;2023-12-20T00:45:13;99169.16;;;5.43;100.00
66430;BME280;53242;51.694;10.006;2023-12-20T00:47:36;99164.25;;;5.40;100.00
66430;BME280;53242;51.694;10.006;2023-12-20T00:49:59;99162.63;;;5.39;100.00
66430;BME280;53242;51.694;10.006;2023-12-20T00:52:21;99160.19;;;5.38;100.00
66430;BME280;53242;51.694;10.006;2023-12-20T00:54:45;99167.66;;;5.49;100.00
66430;BME280;53242;51.694;10.006;2023-12-20T00:57:07;99170.28;;;5.49;100.00
66430;BME280;53242;51.694;10.006;2023-12-20T00:59:30;99165.22;;;5.39;100.00
66430;BME280;53242;51.694;10.006;2023-12-20T01:01:52;99161.16;;;5.45;100.00
66430;BME280;53242;51.694;10.006;2023-12-20T01:04:15;99151.59;;;5.60;100.00
66430;BME280;53242;51.694;10.006;2023-12-20T01:06:37;99157.38;;;5.48;100.00
66430;BME280;53242;51.694;10.006;2023-12-20T01:08:59;99160.59;;;5.58;100.00
66430;BME280;53242;51.694;10.006;2023-12-20T01:11:22;99162.88;;;5.61;100.00
66430;BME280;53242;51.694;10.006;2023-12-20T01:13:44;99160.38;;;5.68;100.00
66430;BME280;53242;51.694;10.006;2023-12-20T01:16:10;99157.75;;;5.76;100.00
66430;BME280;53242;51.694;10.006;2023-12-20T01:18:32;99150.63;;;5.62;100.00
66430;BME280;53242;51.694;10.006;2023-12-20T01:20:55;99160.56;;;5.66;100.00
66430;BME280;53242;51.694;10.006;2023-12-20T01:23:17;99170.41;;;5.64;100.00
66430;BME280;53242;51.694;10.006;2023-12-20T01:25:40;99161.50;;;5.73;100.00
66430;BME280;53242;51.694;10.006;2023-12-20T01:28:02;99159.06;;;5.72;100.00
66430;BME280;53242;51.694;10.006;2023-12-20T01:30:25;99162.00;;;5.69;100.00
66430;BME280;53242;51.694;10.006;2023-12-20T01:32:47;99166.94;;;5.72;100.00
66430;BME280;53242;51.694;10.006;2023-12-20T01:35:10;99154.16;;;5.69;100.00
66430;BME280;53242;51.694;10.006;2023-12-20T01:37:34;99165.47;;;5.69;100.00
66430;BME280;53242;51.694;10.006;2023-12-20T01:39:56;99157.75;;;5.68;100.00
66430;BME280;53242;51.694;10.006;2023-12-20T01:42:18;99168.38;;;5.74;100.00
66430;BME280;53242;51.694;10.006;2023-12-20T01:44:41;99161.16;;;5.76;100.00
66430;BME280;53242;51.694;10.006;2023-12-20T01:47:03;99164.25;;;5.80;100.00
66430;BME280;53242;51.694;10.006;2023-12-20T01:49:26;99159.16;;;5.87;100.00
66430;BME280;53242;51.694;10.006;2023-12-20T01:51:49;99159.63;;;5.90;100.00
66430;BME280;53242;51.694;10.006;2023-12-20T01:54:12;99157.31;;;5.96;100.00
66430;BME280;53242;51.694;10.006;2023-12-20T01:56:35;99157.63;;;6.01;100.00
66430;BME280;53242;51.694;10.006;2023-12-20T01:58:57;99161.13;;;5.85;100.00
66430;BME280;53242;51.694;10.006;2023-12-20T02:01:20;99155.06;;;5.84;100.00
66430;BME280;53242;51.694;10.006;2023-12-20T02:03:42;99159.81;;;5.89;100.00
66430;BME280;53242;51.694;10.006;2023-12-20T02:06:05;99163.19;;;5.98;100.00
66430;BME280;53242;51.694;10.006;2023-12-20T02:08:28;99173.34;;;6.01;100.00
66430;BME280;53242;51.694;10.006;2023-12-20T02:10:50;99184.66;;;5.93;100.00
66430;BME280;53242;51.694;10.006;2023-12-20T02:13:13;99173.06;;;5.87;100.00
66430;BME280;53242;51.694;10.006;2023-12-20T02:15:35;99175.50;;;5.89;100.00
66430;BME280;53242;51.694;10.006;2023-12-20T02:17:59;99182.91;;;5.85;100.00
66430;BME280;53242;51.694;10.006;2023-12-20T02:20:21;99175.88;;;5.78;100.00
66430;BME280;53242;51.694;10.006;2023-12-20T02:22:44;99180.94;;;5.87;100.00
66430;BME280;53242;51.694;10.006;2023-12-20T02:25:07;99188.25;;;5.92;100.00
66430;BME280;53242;51.694;10.006;2023-12-20T02:27:29;99180.94;;;5.87;100.00
66430;BME280;53242;51.694;10.006;2023-12-20T02:29:52;99187.94;;;5.87;100.00
66430;BME280;53242;51.694;10.006;2023-12-20T02:32:15;99184.53;;;5.86;100.00
66430;BME280;53242;51.694;10.006;2023-12-20T02:34:39;99189.72;;;5.95;100.00
66430;BME280;53242;51.694;10.006;2023-12-20T02:37:01;99188.06;;;5.93;100.00
66430;BME280;53242;51.694;10.006;2023-12-20T02:39:23;99187.09;;;5.95;100.00
66430;BME280;53242;51.694;10.006;2023-12-20T02:41:46;99184.28;;;5.96;100.00
66430;BME280;53242;51.694;10.006;2023-12-20T02:44:08;99178.59;;;6.01;100.00
66430;BME280;53242;51.694;10.006;2023-12-20T02:46:31;99193.31;;;6.02;100.00
66430;BME280;53242;51.694;10.006;2023-12-20T02:48:53;99197.91;;;6.00;100.00
66430;BME280;53242;51.694;10.006;2023-12-20T02:51:16;99188.88;;;6.02;99.37
66430;BME280;53242;51.694;10.006;2023-12-20T02:53:38;99179.69;;;6.06;98.67
66430;BME280;53242;51.694;10.006;2023-12-20T02:56:00;99181.88;;;6.03;98.02
66430;BME280;53242;51.694;10.006;2023-12-20T02:58:23;99170.03;;;6.07;97.43
66430;BME280;53242;51.694;10.006;2023-12-20T03:00:45;99170.22;;;6.05;96.90
66430;BME280;53242;51.694;10.006;2023-12-20T03:03:08;99179.38;;;6.01;96.09
66430;BME280;53242;51.694;10.006;2023-12-20T03:05:30;99173.66;;;6.06;95.79
66430;BME280;53242;51.694;10.006;2023-12-20T03:07:52;99159.38;;;6.08;95.19
66430;BME280;53242;51.694;10.006;2023-12-20T03:10:15;99154.84;;;5.94;95.42
66430;BME280;53242;51.694;10.006;2023-12-20T03:12:37;99154.03;;;5.93;95.60
66430;BME280;53242;51.694;10.006;2023-12-20T03:15:00;99157.66;;;5.92;95.29
66430;BME280;53242;51.694;10.006;2023-12-20T03:17:22;99155.19;;;5.91;95.38
66430;BME280;53242;51.694;10.006;2023-12-20T03:19:44;99159.91;;;5.96;94.50
66430;BME280;53242;51.694;10.006;2023-12-20T03:22:07;99160.53;;;6.06;94.83
66430;BME280;53242;51.694;10.006;2023-12-20T03:24:29;99167.66;;;5.89;95.33
66430;BME280;53242;51.694;10.006;2023-12-20T03:26:52;99163.84;;;6.00;94.98
66430;BME280;53242;51.694;10.006;2023-12-20T03:29:14;99168.22;;;6.07;94.50
66430;BME280;53242;51.694;10.006;2023-12-20T03:31:36;99162.53;;;5.96;94.99
66430;BME280;53242;51.694;10.006;2023-12-20T03:33:59;99173.88;;;5.88;95.04
66430;BME280;53242;51.694;10.006;2023-12-20T03:36:21;99165.78;;;6.06;95.38
66430;BME280;53242;51.694;10.006;2023-12-20T03:38:43;99165.50;;;5.92;95.20
66430;BME280;53242;51.694;10.006;2023-12-20T03:41:07;99168.16;;;5.84;95.58
66430;BME280;53242;51.694;10.006;2023-12-20T03:43:29;99160.28;;;5.92;95.15
66430;BME280;53242;51.694;10.006;2023-12-20T03:45:52;99161.06;;;5.93;95.16
66430;BME280;53242;51.694;10.006;2023-12-20T03:48:14;99160.25;;;6.01;94.61
66430;BME280;53242;51.694;10.006;2023-12-20T03:50:36;99168.13;;;5.92;95.19
66430;BME280;53242;51.694;10.006;2023-12-20T03:52:59;99174.97;;;5.93;94.99
66430;BME280;53242;51.694;10.006;2023-12-20T03:55:21;99175.53;;;5.81;95.37
66430;BME280;53242;51.694;10.006;2023-12-20T03:57:44;99175.84;;;5.86;94.91
66430;BME280;53242;51.694;10.006;2023-12-20T04:00:10;99172.47;;;5.77;95.05
66430;BME280;53242;51.694;10.006;2023-12-20T04:02:35;99169.38;;;5.73;94.82
66430;BME280;53242;51.694;10.006;2023-12-20T04:04:57;99176.94;;;5.60;94.89
66430;BME280;53242;51.694;10.006;2023-12-20T04:07:20;99181.19;;;5.61;94.74
66430;BME280;53242;51.694;10.006;2023-12-20T04:09:42;99179.41;;;5.53;94.22
66430;BME280;53242;51.694;10.006;2023-12-20T04:12:05;99182.03;;;5.53;93.65
66430;BME280;53242;51.694;10.006;2023-12-20T04:14:27;99170.25;;;5.57;92.02
66430;BME280;53242;51.694;10.006;2023-12-20T04:16:50;99166.81;;;5.57;91.51
66430;BME280;53242;51.694;10.006;2023-12-20T04:19:12;99174.31;;;5.60;91.12
66430;BME280;53242;51.694;10.006;2023-12-20T04:21:35;99161.28;;;5.52;90.39
66430;BME280;53242;51.694;10.006;2023-12-20T04:23:57;99158.69;;;5.43;90.19
66430;BME280;53242;51.694;10.006;2023-12-20T04:26:19;99167.22;;;5.37;90.56
66430;BME280;53242;51.694;10.006;2023-12-20T04:28:42;99174.44;;;5.27;90.44
66430;BME280;53242;51.694;10.006;2023-12-20T04:31:04;99176.41;;;5.25;90.24
66430;BME280;53242;51.694;10.006;2023-12-20T04:33:27;99171.16;;;5.25;90.30
66430;BME280;53242;51.694;10.006;2023-12-20T04:35:49;99175.88;;;5.38;89.63
66430;BME280;53242;51.694;10.006;2023-12-20T04:38:12;99181.09;;;5.46;89.38
66430;BME280;53242;51.694;10.006;2023-12-20T04:40:34;99185.38;;;5.39;90.04
66430;BME280;53242;51.694;10.006;2023-12-20T04:42:57;99182.44;;;5.34;90.56
66430;BME280;53242;51.694;10.006;2023-12-20T04:45:19;99177.63;;;5.54;89.74
66430;BME280;53242;51.694;10.006;2023-12-20T04:47:42;99187.31;;;5.45;90.14
66430;BME280;53242;51.694;10.006;2023-12-20T04:50:05;99186.00;;;5.49;90.31
66430;BME280;53242;51.694;10.006;2023-12-20T04:52:27;99186.78;;;5.50;90.57
66430;BME280;53242;51.694;10.006;2023-12-20T04:54:50;99183.50;;;5.56;90.65
66430;BME280;53242;51.694;10.006;2023-12-20T04:57:12;99180.69;;;5.66;90.91
66430;BME280;53242;51.694;10.006;2023-12-20T04:59:34;99166.31;;;5.62;91.19
66430;BME280;53242;51.694;10.006;2023-12-20T05:01:57;99162.91;;;5.53;91.77
66430;BME280;53242;51.694;10.006;2023-12-20T05:04:19;99169.63;;;5.47;92.66
66430;BME280;53242;51.694;10.006;2023-12-20T05:06:42;99159.63;;;5.59;91.99
66430;BME280;53242;51.694;10.006;2023-12-20T05:09:05;99168.59;;;5.65;92.04
66430;BME280;53242;51.694;10.006;2023-12-20T05:11:27;99167.63;;;5.57;92.19
66430;BME280;53242;51.694;10.006;2023-12-20T05:13:49;99167.97;;;5.54;92.32
66430;BME280;53242;51.694;10.006;2023-12-20T05:16:12;99166.69;;;5.50;92.41
66430;BME280;53242;51.694;10.006;2023-12-20T05:18:36;99166.88;;;5.49;92.40
66430;BME280;53242;51.694;10.006;2023-12-20T05:20:58;99152.94;;;5.56;92.15
66430;BME280;53242;51.694;10.006;2023-12-20T05:23:21;99144.81;;;5.35;92.58
66430;BME280;53242;51.694;10.006;2023-12-20T05:25:43;99150.53;;;5.38;92.67
66430;BME280;53242;51.694;10.006;2023-12-20T05:28:06;99149.72;;;5.38;92.93
66430;BME280;53242;51.694;10.006;2023-12-20T05:30:28;99141.56;;;5.33;93.36
66430;BME280;53242;51.694;10.006;2023-12-20T05:32:50;99143.84;;;5.36;93.68
66430;BME280;53242;51.694;10.006;2023-12-20T05:35:13;99144.00;;;5.34;93.64
66430;BME280;53242;51.694;10.006;2023-12-20T05:37:36;99149.03;;;5.44;93.37
66430;BME280;53242;51.694;10.006;2023-12-20T05:39:58;99144.47;;;5.38;93.53
66430;BME280;53242;51.694;10.006;2023-12-20T05:42:20;99144.16;;;5.41;93.32
66430;BME280;53242;51.694;10.006;2023-12-20T05:44:43;99152.84;;;5.33;93.16
66430;BME280;53242;51.694;10.006;2023-12-20T05:47:05;99161.16;;;5.37;92.96
66430;BME280;53242;51.694;10.006;2023-12-20T05:49:27;99159.53;;;5.36;92.49
66430;BME280;53242;51.694;10.006;2023-12-20T05:51:50;99159.31;;;5.46;92.17
66430;BME280;53242;51.694;10.006;2023-12-20T05:54:13;99168.31;;;5.51;91.72
66430;BME280;53242;51.694;10.006;2023-12-20T05:56:35;99170.28;;;5.49;91.50
66430;BME280;53242;51.694;10.006;2023-12-20T05:58:58;99167.66;;;5.49;91.46
66430;BME280;53242;51.694;10.006;2023-12-20T06:01:21;99174.66;;;5.57;90.76
66430;BME280;53242;51.694;10.006;2023-12-20T06:03:43;99161.38;;;5.67;90.21
66430;BME280;53242;51.694;10.006;2023-12-20T06:06:06;99162.38;;;5.66;90.40
66430;BME280;53242;51.694;10.006;2023-12-20T06:08:29;99158.00;;;5.58;90.51
66430;BME280;53242;51.694;10.006;2023-12-20T06:10:51;99154.03;;;5.62;90.27
66430;BME280;53242;51.694;10.006;2023-12-20T06:13:14;99160.44;;;5.59;90.36
66430;BME280;53242;51.694;10.006;2023-12-20T06:15:36;99164.19;;;5.57;89.89
66430;BME280;53242;51.694;10.006;2023-12-20T06:17:59;99165.63;;;5.68;89.92
66430;BME280;53242;51.694;10.006;2023-12-20T06:20:21;99163.16;;;5.66;90.00
66430;BME280;53242;51.694;10.006;2023-12-20T06:22:44;99165.63;;;5.68;90.06
66430;BME280;53242;51.694;10.006;2023-12-20T06:25:06;99166.31;;;5.62;90.34
66430;BME280;53242;51.694;10.006;2023-12-20T06:27:29;99160.56;;;5.66;90.38
66430;BME280;53242;51.694;10.006;2023-12-20T06:29:51;99159.06;;;5.72;89.96
66430;BME280;53242;51.694;10.006;2023-12-20T06:32:14;99161.53;;;5.65;90.14
66430;BME280;53242;51.694;10.006;2023-12-20T06:34:36;99166.41;;;5.76;89.28
66430;BME280;53242;51.694;10.006;2023-12-20T06:37:00;99167.91;;;5.71;90.07
66430;BME280;53242;51.694;10.006;2023-12-20T06:39:22;99172.16;;;5.72;89.88
66430;BME280;53242;51.694;10.006;2023-12-20T06:41:44;99175.59;;;5.72;90.25
66430;BME280;53242;51.694;10.006;2023-12-20T06:44:07;99176.25;;;5.66;90.50
66430;BME280;53242;51.694;10.006;2023-12-20T06:46:29;99188.31;;;5.75;90.41
66430;BME280;53242;51.694;10.006;2023-12-20T06:48:52;99174.13;;;5.70;90.55
66430;BME280;53242;51.694;10.006;2023-12-20T06:51:15;99170.19;;;5.74;90.60
66430;BME280;53242;51.694;10.006;2023-12-20T06:53:38;99166.78;;;5.65;90.84
66430;BME280;53242;51.694;10.006;2023-12-20T06:56:00;99160.38;;;5.68;90.29
66430;BME280;53242;51.694;10.006;2023-12-20T06:58:23;99162.69;;;5.63;90.99
66430;BME280;53242;51.694;10.006;2023-12-20T07:00:45;99158.47;;;5.62;91.11
66430;BME280;53242;51.694;10.006;2023-12-20T07:03:09;99159.06;;;5.72;90.05
66430;BME280;53242;51.694;10.006;2023-12-20T07:05:31;99153.84;;;5.72;90.33
66430;BME280;53242;51.694;10.006;2023-12-20T07:07:55;99155.63;;;5.71;90.10
66430;BME280;53242;51.694;10.006;2023-12-20T07:10:17;99145.63;;;5.75;89.74
66430;BME280;53242;51.694;10.006;2023-12-20T07:12:40;99153.13;;;5.78;90.11
66430;BME280;53242;51.694;10.006;2023-12-20T07:15:02;99152.50;;;5.76;90.04
66430;BME280;53242;51.694;10.006;2023-12-20T07:17:25;99140.09;;;5.70;90.64
66430;BME280;53242;51.694;10.006;2023-12-20T07:19:47;99139.91;;;5.71;90.49
66430;BME280;53242;51.694;10.006;2023-12-20T07:22:09;99152.69;;;5.74;90.27
66430;BME280;53242;51.694;10.006;2023-12-20T07:24:32;99157.13;;;5.66;90.71
66430;BME280;53242;51.694;10.006;2023-12-20T07:26:55;99166.94;;;5.64;90.60
66430;BME280;53242;51.694;10.006;2023-12-20T07:29:17;99169.69;;;5.79;90.08
66430;BME280;53242;51.694;10.006;2023-12-20T07:31:39;99168.69;;;5.80;89.95
66430;BME280;53242;51.694;10.006;2023-12-20T07:34:02;99170.19;;;5.74;90.05
66430;BME280;53242;51.694;10.006;2023-12-20T07:36:24;99173.94;;;5.71;89.95
66430;BME280;53242;51.694;10.006;2023-12-20T07:38:47;99169.13;;;5.83;89.58
66430;BME280;53242;51.694;10.006;2023-12-20T07:41:12;99176.38;;;5.81;88.85
66430;BME280;53242;51.694;10.006;2023-12-20T07:43:35;99184.84;;;5.83;88.94
66430;BME280;53242;51.694;10.006;2023-12-20T07:46:01;99177.47;;;5.87;88.90
66430;BME280;53242;51.694;10.006;2023-12-20T07:48:25;99184.72;;;5.85;89.16
66430;BME280;53242;51.694;10.006;2023-12-20T07:50:48;99193.38;;;5.85;88.92
66430;BME280;53242;51.694;10.006;2023-12-20T07:53:10;99184.06;;;5.83;88.73
66430;BME280;53242;51.694;10.006;2023-12-20T07:55:33;99192.09;;;5.81;89.57
66430;BME280;53242;51.694;10.006;2023-12-20T07:57:55;99200.78;;;5.73;90.07
66430;BME280;53242;51.694;10.006;2023-12-20T08:00:17;99206.81;;;5.82;89.91
66430;BME280;53242;51.694;10.006;2023-12-20T08:02:40;99197.22;;;5.66;89.87
66430;BME280;53242;51.694;10.006;2023-12-20T08:05:02;99192.09;;;5.81;90.23
66430;BME280;53242;51.694;10.006;2023-12-20T08:07:25;99179.63;;;5.83;90.41
66430;BME280;53242;51.694;10.006;2023-12-20T08:09:47;99170.00;;;5.75;90.63
66430;BME280;53242;51.694;10.006;2023-12-20T08:12:10;99181.25;;;5.84;90.29
66430;BME280;53242;51.694;10.006;2023-12-20T08:14:33;99176.00;;;5.84;90.23
66430;BME280;53242;51.694;10.006;2023-12-20T08:16:55;99166.56;;;5.75;90.21
66430;BME280;53242;51.694;10.006;2023-12-20T08:19:18;99174.59;;;5.73;90.25
66430;BME280;53242;51.694;10.006;2023-12-20T08:21:40;99172.34;;;5.62;90.21
66430;BME280;53242;51.694;10.006;2023-12-20T08:24:02;99176.78;;;5.62;90.21
66430;BME280;53242;51.694;10.006;2023-12-20T08:26:25;99180.53;;;5.67;90.36
66430;BME280;53242;51.694;10.006;2023-12-20T08:28:47;99185.75;;;5.67;90.08
66430;BME280;53242;51.694;10.006;2023-12-20T08:31:14;99185.56;;;5.77;89.86
66430;BME280;53242;51.694;10.006;2023-12-20T08:33:37;99185.09;;;5.65;90.34
66430;BME280;53242;51.694;10.006;2023-12-20T08:35:59;99181.19;;;5.69;90.45
66430;BME280;53242;51.694;10.006;2023-12-20T08:38:22;99196.72;;;5.71;90.78
66430;BME280;53242;51.694;10.006;2023-12-20T08:40:44;99190.00;;;5.68;90.96
66430;BME280;53242;51.694;10.006;2023-12-20T08:43:07;99181.31;;;5.76;90.58
66430;BME280;53242;51.694;10.006;2023-12-20T08:45:29;99187.03;;;5.71;91.05
66430;BME280;53242;51.694;10.006;2023-12-20T08:47:51;99174.94;;;5.70;90.85
66430;BME280;53242;51.694;10.006;2023-12-20T08:50:14;99179.38;;;5.70;91.08
66430;BME280;53242;51.694;10.006;2023-12-20T08:52:37;99185.88;;;5.74;91.84
66430;BME280;53242;51.694;10.006;2023-12-20T08:54:59;99165.97;;;5.65;92.29
66430;BME280;53242;51.694;10.006;2023-12-20T08:57:22;99167.56;;;5.74;93.05
66430;BME280;53242;51.694;10.006;2023-12-20T08:59:47;99171.69;;;5.60;94.03
66430;BME280;53242;51.694;10.006;2023-12-20T09:02:10;99179.84;;;5.73;93.06
66430;BME280;53242;51.694;10.006;2023-12-20T09:04:32;99176.44;;;5.65;93.07
66430;BME280;53242;51.694;10.006;2023-12-20T09:06:55;99167.91;;;5.71;92.79
66430;BME280;53242;51.694;10.006;2023-12-20T09:09:17;99169.56;;;5.72;92.40
66430;BME280;53242;51.694;10.006;2023-12-20T09:11:39;99166.38;;;5.85;91.61
66430;BME280;53242;51.694;10.006;2023-12-20T09:14:02;99165.25;;;5.79;92.16
66430;BME280;53242;51.694;10.006;2023-12-20T09:16:25;99158.53;;;5.85;91.64
66430;BME280;53242;51.694;10.006;2023-12-20T09:18:48;99166.41;;;5.76;90.83
66430;BME280;53242;51.694;10.006;2023-12-20T09:21:10;99163.56;;;5.86;90.11
66430;BME280;53242;51.694;10.006;2023-12-20T09:23:32;99163.53;;;5.95;89.09
66430;BME280;53242;51.694;10.006;2023-12-20T09:25:55;99164.84;;;5.90;89.64
66430;BME280;53242;51.694;10.006;2023-12-20T09:28:17;99159.81;;;5.89;89.19
66430;BME280;53242;51.694;10.006;2023-12-20T09:30:40;99160.09;;;5.94;89.23
66430;BME280;53242;51.694;10.006;2023-12-20T09:33:02;99164.19;;;5.97;88.78
66430;BME280;53242;51.694;10.006;2023-12-20T09:35:25;99153.84;;;6.03;87.96
66430;BME280;53242;51.694;10.006;2023-12-20T09:37:48;99155.34;;;5.98;87.64
66430;BME280;53242;51.694;10.006;2023-12-20T09:40:12;99162.88;;;6.01;87.68
66430;BME280;53242;51.694;10.006;2023-12-20T09:42:48;99154.69;;;5.96;87.84
66430;BME280;53242;51.694;10.006;2023-12-20T09:45:13;99151.88;;;6.05;87.72
66430;BME280;53242;51.694;10.006;2023-12-20T09:47:37;99156.00;;;6.00;87.73
66430;BME280;53242;51.694;10.006;2023-12-20T09:49:59;99142.88;;;6.00;88.40
66430;BME280;53242;51.694;10.006;2023-12-20T09:52:23;99147.34;;;5.99;87.98
66430;BME280;53242;51.694;10.006;2023-12-20T09:54:49;99145.63;;;6.06;88.57
66430;BME280;53242;51.694;10.006;2023-12-20T09:57:12;99144.84;;;5.98;88.66
66430;BME280;53242;51.694;10.006;2023-12-20T09:59:34;99134.38;;;5.98;88.85
66430;BME280;53242;51.694;10.006;2023-12-20T10:01:57;99141.56;;;6.04;88.16
66430;BME280;53242;51.694;10.006;2023-12-20T10:04:20;99129.41;;;6.11;88.42
66430;BME280;53242;51.694;10.006;2023-12-20T10:06:43;99123.25;;;5.96;88.78
66430;BME280;53242;51.694;10.006;2023-12-20T10:09:05;99124.38;;;6.01;88.86
66430;BME280;53242;51.694;10.006;2023-12-20T10:11:28;99120.31;;;5.99;89.38
66430;BME280;53242;51.694;10.006;2023-12-20T10:13:50;99129.47;;;6.03;89.26
66430;BME280;53242;51.694;10.006;2023-12-20T10:16:12;99114.06;;;6.00;90.00
66430;BME280;53242;51.694;10.006;2023-12-20T10:18:35;99125.38;;;6.00;90.85
66430;BME280;53242;51.694;10.006;2023-12-20T10:20:58;99105.25;;;6.01;90.60
66430;BME280;53242;51.694;10.006;2023-12-20T10:23:20;99109.81;;;5.99;90.22
66430;BME280;53242;51.694;10.006;2023-12-20T10:25:43;99106.22;;;6.00;90.94
66430;BME280;53242;51.694;10.006;2023-12-20T10:28:13;99105.41;;;5.91;91.53
66430;BME280;53242;51.694;10.006;2023-12-20T10:30:36;99093.97;;;5.92;91.56
66430;BME280;53242;51.694;10.006;2023-12-20T10:32:59;99093.97;;;6.00;92.68
66430;BME280;53242;51.694;10.006;2023-12-20T10:35:21;99080.84;;;6.00;92.05
66430;BME280;53242;51.694;10.006;2023-12-20T10:37:43;99083.31;;;5.93;93.45
66430;BME280;53242;51.694;10.006;2023-12-20T10:40:06;99086.94;;;5.92;92.75
66430;BME280;53242;51.694;10.006;2023-12-20T10:42:30;99080.69;;;5.93;92.68
66430;BME280;53242;51.694;10.006;2023-12-20T10:44:53;99060.69;;;6.01;93.08
66430;BME280;53242;51.694;10.006;2023-12-20T10:47:18;99062.81;;;5.97;93.61
66430;BME280;53242;51.694;10.006;2023-12-20T10:49:41;99070.69;;;5.97;93.36
66430;BME280;53242;51.694;10.006;2023-12-20T10:52:05;99068.25;;;5.96;93.44
66430;BME280;53242;51.694;10.006;2023-12-20T10:54:28;99064.13;;;6.01;92.98
66430;BME280;53242;51.694;10.006;2023-12-20T10:56:52;99069.59;;;5.91;93.35
66430;BME280;53242;51.694;10.006;2023-12-20T10:59:16;99070.94;;;5.87;92.69
66430;BME280;53242;51.694;10.006;2023-12-20T11:01:41;99067.78;;;5.92;92.49
66430;BME280;53242;51.694;10.006;2023-12-20T11:04:06;99061.53;;;5.93;92.58
66430;BME280;53242;51.694;10.006;2023-12-20T11:06:36;99064.69;;;5.88;92.48
66430;BME280;53242;51.694;10.006;2023-12-20T11:09:17;99053.88;;;5.91;92.79
66430;BME280;53242;51.694;10.006;2023-12-20T11:11:57;99054.16;;;5.97;92.60
66430;BME280;53242;51.694;10.006;2023-12-20T11:14:52;99057.66;;;5.89;94.21
66430;BME280;53242;51.694;10.006;2023-12-20T11:17:16;99055.06;;;5.81;93.91
66430;BME280;53242;51.694;10.006;2023-12-20T11:22:24;99041.34;;;5.79;94.09
66430;BME280;53242;51.694;10.006;2023-12-20T11:24:48;99029.44;;;5.76;94.81
66430;BME280;53242;51.694;10.006;2023-12-20T11:27:10;99026.13;;;5.82;95.23
66430;BME280;53242;51.694;10.006;2023-12-20T11:29:34;99026.13;;;5.82;94.74
66430;BME280;53242;51.694;10.006;2023-12-20T11:32:00;99022.38;;;5.76;94.89
66430;BME280;53242;51.694;10.006;2023-12-20T11:34:27;99012.38;;;5.80;95.21
66430;BME280;53242;51.694;10.006;2023-12-20T11:36:57;99000.84;;;5.89;94.76
66430;BME280;53242;51.694;10.006;2023-12-20T11:39:21;99000.63;;;5.76;94.78
66430;BME280;53242;51.694;10.006;2023-12-20T11:41:44;99003.47;;;5.89;94.65
66430;BME280;53242;51.694;10.006;2023-12-20T11:44:07;98999.94;;;5.82;94.82
66430;BME280;53242;51.694;10.006;2023-12-20T11:46:31;98994.97;;;5.87;94.96
66430;BME280;53242;51.694;10.006;2023-12-20T11:48:54;98993.69;;;5.83;95.19
66430;BME280;53242;51.694;10.006;2023-12-20T11:51:16;98997.22;;;5.90;95.23
66430;BME280;53242;51.694;10.006;2023-12-20T11:53:39;98999.09;;;5.82;95.52
66430;BME280;53242;51.694;10.006;2023-12-20T11:56:03;98999.75;;;5.84;95.52
66430;BME280;53242;51.694;10.006;2023-12-20T11:58:25;98997.31;;;5.82;95.68
66430;BME280;53242;51.694;10.006;2023-12-20T12:00:49;99000.56;;;5.84;96.32
66430;BME280;53242;51.694;10.006;2023-12-20T12:03:14;98986.09;;;5.73;97.04
66430;BME280;53242;51.694;10.006;2023-12-20T12:05:37;98986.56;;;5.77;96.80
66430;BME280;53242;51.694;10.006;2023-12-20T12:08:00;98984.53;;;5.64;97.49
66430;BME280;53242;51.694;10.006;2023-12-20T12:10:22;98983.28;;;5.75;98.21
66430;BME280;53242;51.694;10.006;2023-12-20T12:12:45;98987.88;;;5.73;98.22
66430;BME280;53242;51.694;10.006;2023-12-20T12:15:07;98984.25;;;5.74;98.42
66430;BME280;53242;51.694;10.006;2023-12-20T12:17:30;98994.56;;;5.75;98.17
66430;BME280;53242;51.694;10.006;2023-12-20T12:20:02;99004.50;;;5.80;97.83
66430;BME280;53242;51.694;10.006;2023-12-20T12:22:24;98986.84;;;5.82;97.82
66430;BME280;53242;51.694;10.006;2023-12-20T12:24:49;98979.31;;;5.79;98.25
66430;BME280;53242;51.694;10.006;2023-12-20T12:27:15;98980.25;;;5.86;98.45
66430;BME280;53242;51.694;10.006;2023-12-20T12:29:38;98971.03;;;5.90;98.01
66430;BME280;53242;51.694;10.006;2023-12-20T12:32:04;98982.88;;;6.09;97.25
66430;BME280;53242;51.694;10.006;2023-12-20T12:34:27;98979.69;;;5.99;97.51
66430;BME280;53242;51.694;10.006;2023-12-20T12:36:50;98970.19;;;5.98;97.57